createdAt,value
2022-11-15T00:02:27.097Z,2.27
2022-11-15T00:05:15.477Z,2.63
2022-11-15T00:08:02.385Z,3.18
2022-11-15T00:10:56.709Z,2.79
2022-11-15T00:13:43.771Z,1.96
2022-11-15T00:16:30.729Z,2.82
2022-11-15T00:19:18.031Z,2.88
2022-11-15T00:22:06.375Z,3.00
2022-11-15T00:24:53.226Z,2.52
2022-11-15T00:27:40.353Z,2.66
2022-11-15T00:30:27.420Z,2.56
2022-11-15T00:33:14.407Z,2.25
2022-11-15T00:36:05.430Z,2.89
2022-11-15T00:38:53.783Z,2.86
2022-11-15T00:41:40.827Z,2.58
2022-11-15T00:44:27.552Z,2.81
2022-11-15T00:47:14.106Z,2.13
2022-11-15T00:50:01.183Z,2.39
2022-11-15T00:52:48.351Z,2.68
2022-11-15T00:55:36.834Z,2.59
2022-11-15T00:58:24.040Z,3.25
2022-11-15T01:01:12.130Z,2.62
2022-11-15T01:04:01.485Z,2.44
2022-11-15T01:06:49.104Z,2.39
2022-11-15T01:09:36.289Z,2.07
2022-11-15T01:12:24.889Z,1.57
2022-11-15T01:15:12.204Z,1.74
2022-11-15T01:17:59.303Z,1.73
2022-11-15T01:20:46.467Z,1.72
2022-11-15T01:23:33.839Z,1.79
2022-11-15T01:26:20.987Z,2.05
2022-11-15T01:29:09.285Z,2.44
2022-11-15T01:31:56.254Z,1.92
2022-11-15T01:34:43.057Z,2.13
2022-11-15T01:37:29.992Z,2.33
2022-11-15T01:40:17.115Z,2.51
2022-11-15T01:43:22.778Z,2.53
2022-11-15T01:46:24.221Z,2.78
2022-11-15T01:49:14.899Z,2.23
2022-11-15T01:52:03.359Z,2.48
2022-11-15T01:54:53.194Z,2.30
2022-11-15T01:57:40.367Z,2.23
2022-11-15T02:00:27.357Z,2.36
2022-11-15T02:03:15.797Z,2.18
2022-11-15T02:06:04.398Z,2.88
2022-11-15T02:08:51.975Z,2.83
2022-11-15T02:11:39.095Z,2.19
2022-11-15T02:14:27.784Z,2.99
2022-11-15T02:17:26.318Z,2.89
2022-11-15T02:20:49.419Z,1.90
2022-11-15T02:24:07.869Z,2.47
2022-11-15T02:27:10.306Z,2.82
2022-11-15T02:30:30.005Z,2.20
2022-11-15T02:33:29.457Z,2.38
2022-11-15T02:36:20.356Z,1.69
2022-11-15T02:39:11.616Z,2.25
2022-11-15T02:42:02.768Z,2.32
2022-11-15T02:44:49.807Z,2.45
2022-11-15T02:47:43.109Z,2.31
2022-11-15T02:50:32.624Z,3.11
2022-11-15T02:53:19.768Z,2.89
2022-11-15T02:56:06.728Z,2.63
2022-11-15T02:59:15.341Z,2.52
2022-11-15T03:02:12.011Z,2.34
2022-11-15T03:05:02.234Z,2.39
2022-11-15T03:07:54.804Z,2.75
2022-11-15T03:10:48.766Z,2.43
2022-11-15T03:13:39.327Z,2.60
2022-11-15T03:16:29.050Z,2.39
2022-11-15T03:19:20.945Z,2.81
2022-11-15T03:22:11.958Z,2.17
2022-11-15T03:25:03.417Z,2.85
2022-11-15T03:27:53.715Z,3.34
2022-11-15T03:30:42.117Z,3.73
2022-11-15T03:33:30.768Z,2.00
2022-11-15T03:36:18.546Z,3.00
2022-11-15T03:39:08.689Z,3.31
2022-11-15T03:42:04.721Z,2.55
2022-11-15T03:44:56.683Z,2.69
2022-11-15T03:47:46.369Z,2.78
2022-11-15T03:50:33.870Z,2.83
2022-11-15T03:53:21.014Z,2.14
2022-11-15T03:56:07.877Z,3.01
2022-11-15T03:58:56.483Z,2.64
2022-11-15T04:01:44.001Z,2.62
2022-11-15T04:04:31.062Z,2.74
2022-11-15T04:07:18.291Z,2.71
2022-11-15T04:10:06.682Z,2.63
2022-11-15T04:12:54.038Z,2.75
2022-11-15T04:15:42.660Z,3.19
2022-11-15T04:18:29.914Z,2.70
2022-11-15T04:21:34.888Z,2.47
2022-11-15T04:24:21.831Z,2.63
2022-11-15T04:27:09.034Z,2.85
2022-11-15T04:29:56.295Z,2.93
2022-11-15T04:32:44.999Z,3.04
2022-11-15T04:35:32.591Z,2.97
2022-11-15T04:38:19.299Z,2.10
2022-11-15T04:41:06.215Z,2.34
2022-11-15T04:43:53.151Z,2.52
2022-11-15T04:46:40.214Z,2.98
2022-11-15T04:49:28.496Z,2.75
2022-11-15T04:52:15.255Z,2.71
2022-11-15T04:55:07.760Z,2.17
2022-11-15T04:58:01.675Z,2.60
2022-11-15T05:00:49.001Z,2.73
2022-11-15T05:03:53.848Z,2.79
2022-11-15T05:06:42.600Z,2.38
2022-11-15T05:09:29.467Z,2.40
2022-11-15T05:12:16.960Z,2.62
2022-11-15T05:15:04.428Z,2.78
2022-11-15T05:17:51.262Z,2.68
2022-11-15T05:20:38.194Z,1.59
2022-11-15T05:23:26.315Z,1.91
2022-11-15T05:26:13.282Z,2.13
2022-11-15T05:29:01.453Z,2.22
2022-11-15T05:31:48.282Z,2.55
2022-11-15T05:34:35.186Z,2.55
2022-11-15T05:37:22.149Z,2.54
2022-11-15T05:40:11.465Z,2.06
2022-11-15T05:42:58.537Z,1.75
2022-11-15T05:45:45.519Z,1.79
2022-11-15T05:48:32.707Z,1.77
2022-11-15T05:51:20.768Z,1.37
2022-11-15T05:54:07.926Z,1.04
2022-11-15T05:56:57.025Z,1.57
2022-11-15T05:59:44.529Z,1.50
2022-11-15T06:02:31.566Z,1.91
2022-11-15T06:05:18.348Z,1.52
2022-11-15T06:08:05.669Z,1.75
2022-11-15T06:10:52.847Z,1.50
2022-11-15T06:13:41.500Z,1.45
2022-11-15T06:16:28.490Z,1.57
2022-11-15T06:19:15.894Z,1.21
2022-11-15T06:22:03.079Z,1.34
2022-11-15T06:24:49.952Z,2.16
2022-11-15T06:27:36.858Z,1.84
2022-11-15T06:30:26.605Z,1.89
2022-11-15T06:33:13.588Z,1.26
2022-11-15T06:36:03.028Z,1.39
2022-11-15T06:38:50.486Z,1.34
2022-11-15T06:41:38.904Z,0.98
2022-11-15T06:44:26.058Z,1.19
2022-11-15T06:47:14.534Z,1.83
2022-11-15T06:50:01.687Z,1.05
2022-11-15T06:52:48.951Z,1.83
2022-11-15T06:55:35.884Z,1.52
2022-11-15T06:58:23.289Z,0.84
2022-11-15T07:01:13.144Z,1.65
2022-11-15T07:04:01.847Z,1.84
2022-11-15T07:06:49.486Z,1.87
2022-11-15T07:09:36.526Z,1.60
2022-11-15T07:12:23.688Z,1.38
2022-11-15T07:15:11.890Z,1.21
2022-11-15T07:18:02.679Z,2.18
2022-11-15T07:20:50.994Z,2.29
2022-11-15T07:23:39.087Z,2.52
2022-11-15T07:26:26.318Z,2.92
2022-11-15T07:29:13.178Z,2.11
2022-11-15T07:32:00.188Z,1.23
2022-11-15T07:34:49.773Z,1.46
2022-11-15T07:37:38.222Z,2.26
2022-11-15T07:40:25.803Z,2.26
2022-11-15T07:43:13.093Z,1.99
2022-11-15T07:46:00.027Z,1.62
2022-11-15T07:48:47.086Z,1.93
2022-11-15T07:51:33.820Z,2.57
2022-11-15T07:54:22.135Z,1.85
2022-11-15T07:57:10.237Z,2.15
2022-11-15T07:59:57.553Z,2.52
2022-11-15T08:02:44.986Z,2.53
2022-11-15T08:05:32.779Z,1.73
2022-11-15T08:08:19.863Z,2.04
2022-11-15T08:11:07.666Z,1.88
2022-11-15T08:13:54.490Z,1.58
2022-11-15T08:16:41.907Z,1.80
2022-11-15T08:19:29.418Z,2.60
2022-11-15T08:22:16.838Z,2.21
2022-11-15T08:25:03.807Z,2.44
2022-11-15T08:27:55.394Z,1.40
2022-11-15T08:30:46.346Z,2.50
2022-11-15T08:33:34.115Z,2.38
2022-11-15T08:36:21.553Z,2.70
2022-11-15T08:39:12.353Z,2.37
2022-11-15T08:41:59.303Z,2.34
2022-11-15T08:44:48.105Z,2.78
2022-11-15T08:47:35.323Z,2.71
2022-11-15T08:50:22.359Z,1.78
2022-11-15T08:53:09.719Z,1.53
2022-11-15T08:55:57.073Z,2.80
2022-11-15T08:58:44.328Z,3.51
2022-11-15T09:01:33.658Z,3.82
2022-11-15T09:04:20.913Z,3.54
2022-11-15T09:07:08.010Z,3.29
2022-11-15T09:09:55.019Z,2.78
2022-11-15T09:12:42.107Z,2.90
2022-11-15T09:15:29.093Z,2.55
2022-11-15T09:18:17.321Z,2.92
2022-11-15T09:21:05.379Z,2.97
2022-11-15T09:23:53.455Z,3.53
2022-11-15T09:26:40.739Z,2.33
2022-11-15T09:29:27.662Z,2.39
2022-11-15T09:32:14.362Z,2.90
2022-11-15T09:35:02.837Z,3.65
2022-11-15T09:37:54.984Z,3.49
2022-11-15T09:40:43.218Z,3.48
2022-11-15T09:43:34.977Z,3.62
2022-11-15T09:46:26.761Z,2.50
2022-11-15T09:49:16.586Z,3.32
2022-11-15T09:52:03.294Z,3.69
2022-11-15T09:57:27.084Z,3.48
2022-11-15T10:03:05.183Z,3.33
2022-11-15T10:05:34.696Z,2.85
2022-11-15T10:08:12.544Z,3.08
2022-11-15T10:10:42.516Z,2.92
2022-11-15T10:13:11.340Z,3.30
2022-11-15T10:15:39.810Z,3.31
2022-11-15T10:18:11.488Z,3.64
2022-11-15T10:20:49.036Z,3.47
2022-11-15T10:23:21.971Z,3.04
2022-11-15T10:25:53.136Z,3.41
2022-11-15T10:28:24.690Z,3.24
2022-11-15T10:30:55.424Z,2.85
2022-11-15T10:33:35.575Z,3.04
2022-11-15T10:36:23.266Z,3.66
2022-11-15T10:39:01.855Z,3.41
2022-11-15T10:41:37.001Z,3.20
2022-11-15T10:44:13.935Z,4.28
2022-11-15T10:46:47.886Z,4.22
2022-11-15T10:49:17.750Z,4.25
2022-11-15T10:51:49.170Z,4.20
2022-11-15T10:54:23.268Z,4.06
2022-11-15T10:56:53.104Z,4.33
2022-11-15T10:59:26.247Z,3.74
2022-11-15T11:01:54.606Z,3.73
2022-11-15T11:04:23.432Z,4.28
2022-11-15T11:06:53.275Z,4.75
2022-11-15T11:09:31.235Z,5.06
2022-11-15T11:12:00.259Z,4.57
2022-11-15T11:14:32.084Z,4.00
2022-11-15T11:17:06.408Z,4.57
2022-11-15T11:19:51.332Z,5.16
2022-11-15T11:22:25.375Z,5.03
2022-11-15T11:25:05.928Z,5.08
2022-11-15T11:27:44.824Z,5.38
2022-11-15T11:30:18.271Z,5.34
2022-11-15T11:33:11.957Z,5.47
2022-11-15T11:35:48.516Z,5.60
2022-11-15T11:38:36.676Z,5.19
2022-11-15T11:41:15.712Z,5.07
2022-11-15T11:43:52.798Z,4.94
2022-11-15T11:46:34.913Z,5.47
2022-11-15T11:49:10.243Z,5.75
2022-11-15T11:51:42.154Z,5.94
2022-11-15T11:54:14.880Z,5.84
2022-11-15T11:56:46.576Z,5.65
2022-11-15T11:59:19.976Z,5.10
2022-11-15T12:01:48.167Z,4.91
2022-11-15T12:04:20.463Z,5.10
2022-11-15T12:06:54.251Z,4.98
2022-11-15T12:09:26.380Z,5.18
2022-11-15T12:12:00.284Z,5.07
2022-11-15T12:14:33.955Z,4.90
2022-11-15T12:17:02.480Z,4.94
2022-11-15T12:19:31.900Z,4.91
2022-11-15T12:22:04.602Z,5.13
2022-11-15T12:24:37.435Z,5.46
2022-11-15T12:27:09.564Z,5.57
2022-11-15T12:29:40.699Z,5.45
2022-11-15T12:32:19.784Z,5.69
2022-11-15T12:34:49.070Z,5.79
2022-11-15T12:37:49.940Z,6.13
2022-11-15T12:40:26.685Z,5.62
2022-11-15T12:43:05.779Z,5.80
2022-11-15T12:45:35.565Z,5.79
2022-11-15T12:48:51.713Z,5.90
2022-11-15T12:51:22.642Z,5.97
2022-11-15T12:53:51.175Z,5.85
2022-11-15T12:56:24.216Z,5.90
2022-11-15T12:58:56.470Z,5.84
2022-11-15T13:02:07.590Z,6.04
2022-11-15T13:04:36.223Z,6.11
2022-11-15T13:07:06.829Z,5.79
2022-11-15T13:09:56.428Z,5.84
2022-11-15T13:12:59.504Z,5.82
2022-11-15T13:15:54.860Z,5.53
2022-11-15T13:18:38.290Z,5.50
2022-11-15T13:21:38.501Z,5.64
2022-11-15T13:24:07.304Z,5.44
2022-11-15T13:26:35.977Z,5.55
2022-11-15T13:29:04.512Z,5.77
2022-11-15T13:31:38.888Z,5.80
2022-11-15T13:34:49.352Z,5.89
2022-11-15T13:37:12.146Z,5.80
2022-11-15T13:39:40.566Z,5.76
2022-11-15T13:42:16.942Z,5.94
2022-11-15T13:44:57.282Z,5.75
2022-11-15T13:47:28.875Z,5.80
2022-11-15T13:49:59.496Z,5.77
2022-11-15T13:52:30.819Z,5.64
2022-11-15T13:55:02.282Z,5.56
2022-11-15T13:57:32.594Z,5.45
2022-11-15T14:00:04.116Z,5.20
2022-11-15T14:02:41.524Z,5.35
2022-11-15T14:05:18.660Z,5.43
2022-11-15T14:07:55.752Z,5.45
2022-11-15T14:10:32.717Z,5.42
2022-11-15T14:13:01.745Z,5.10
2022-11-15T14:15:33.205Z,5.13
2022-11-15T14:18:03.089Z,5.06
2022-11-15T14:20:33.761Z,5.12
2022-11-15T14:23:03.313Z,5.00
2022-11-15T14:25:32.413Z,4.80
2022-11-15T14:28:26.285Z,4.63
2022-11-15T14:30:56.577Z,4.47
2022-11-15T14:33:29.309Z,4.75
2022-11-15T14:35:59.280Z,4.67
2022-11-15T14:38:28.117Z,5.06
2022-11-15T14:40:57.767Z,4.96
2022-11-15T14:43:26.437Z,4.81
2022-11-15T14:45:54.922Z,4.85
2022-11-15T14:48:23.953Z,4.80
2022-11-15T14:50:53.707Z,4.98
2022-11-15T14:53:23.131Z,4.97
2022-11-15T14:55:51.288Z,5.05
2022-11-15T14:58:19.763Z,5.03
2022-11-15T15:00:48.237Z,5.17
2022-11-15T15:03:16.736Z,5.06
2022-11-15T15:05:46.066Z,5.31
2022-11-15T15:08:15.867Z,5.25
2022-11-15T15:10:45.624Z,5.07
2022-11-15T15:13:18.954Z,5.30
2022-11-15T15:15:47.683Z,4.95
2022-11-15T15:18:16.492Z,4.89
2022-11-15T15:20:46.596Z,4.95
2022-11-15T15:23:20.938Z,5.14
2022-11-15T15:25:50.132Z,5.08
2022-11-15T15:28:18.738Z,5.07
2022-11-15T15:30:47.055Z,5.27
2022-11-15T15:33:15.470Z,5.37
2022-11-15T15:35:44.016Z,5.19
2022-11-15T15:38:14.122Z,5.06
2022-11-15T15:40:43.621Z,5.12
2022-11-15T15:43:12.027Z,4.92
2022-11-15T15:45:41.410Z,4.87
2022-11-15T15:48:13.085Z,4.72
2022-11-15T15:50:43.858Z,4.72
2022-11-15T15:53:13.150Z,4.71
2022-11-15T15:55:43.099Z,4.56
2022-11-15T15:58:11.301Z,4.92
2022-11-15T16:00:40.097Z,4.75
2022-11-15T16:03:08.627Z,4.91
2022-11-15T16:05:37.074Z,4.81
2022-11-15T16:08:05.792Z,4.76
2022-11-15T16:10:35.756Z,4.81
2022-11-15T16:13:05.459Z,4.68
2022-11-15T16:15:33.995Z,4.67
2022-11-15T16:18:03.253Z,4.76
2022-11-15T16:20:38.227Z,4.65
2022-11-15T16:23:09.657Z,4.80
2022-11-15T16:25:44.162Z,4.96
2022-11-15T16:28:21.903Z,4.78
2022-11-15T16:30:55.561Z,4.79
2022-11-15T16:33:25.620Z,4.69
2022-11-15T16:35:54.065Z,4.75
2022-11-15T16:38:22.504Z,4.76
2022-11-15T16:40:50.795Z,4.58
2022-11-15T16:43:20.612Z,4.64
2022-11-15T16:45:49.131Z,4.55
2022-11-15T16:48:23.820Z,4.67
2022-11-15T16:50:52.815Z,4.66
2022-11-15T16:53:21.219Z,4.77
2022-11-15T16:55:49.289Z,4.79
2022-11-15T16:58:17.777Z,4.76
2022-11-15T17:00:47.601Z,4.87
2022-11-15T17:03:16.195Z,4.76
2022-11-15T17:05:44.726Z,4.68
2022-11-15T17:08:13.135Z,4.69
2022-11-15T17:10:42.188Z,4.77
2022-11-15T17:13:13.318Z,4.80
2022-11-15T17:15:42.056Z,4.73
2022-11-15T17:18:15.420Z,4.65
2022-11-15T17:20:44.539Z,4.60
2022-11-15T17:23:15.201Z,4.56
2022-11-15T17:25:43.108Z,4.72
2022-11-15T17:28:11.868Z,4.55
2022-11-15T17:30:43.000Z,4.66
2022-11-15T17:33:11.478Z,4.63
2022-11-15T17:35:41.382Z,4.68
2022-11-15T17:38:09.893Z,4.57
2022-11-15T17:40:37.965Z,4.39
2022-11-15T17:43:07.034Z,4.42
2022-11-15T17:45:35.494Z,4.31
2022-11-15T17:48:04.044Z,4.17
2022-11-15T17:50:32.505Z,4.16
2022-11-15T17:53:02.285Z,4.30
2022-11-15T17:55:30.274Z,4.16
2022-11-15T17:57:58.720Z,4.34
2022-11-15T18:00:27.063Z,4.28
2022-11-15T18:02:55.511Z,4.30
2022-11-15T18:05:24.046Z,4.33
2022-11-15T18:07:52.153Z,4.30
2022-11-15T18:10:21.940Z,4.24
2022-11-15T18:12:50.421Z,4.32
2022-11-15T18:15:19.158Z,4.19
2022-11-15T18:17:47.611Z,4.18
2022-11-15T18:20:16.927Z,4.21
2022-11-15T18:22:45.064Z,4.16
2022-11-15T18:25:15.930Z,4.14
2022-11-15T18:27:45.720Z,4.16
2022-11-15T18:30:14.503Z,4.15
2022-11-15T18:32:43.016Z,4.08
2022-11-15T18:35:11.581Z,4.08
2022-11-15T18:37:39.699Z,4.11
2022-11-15T18:40:09.568Z,4.20
2022-11-15T18:42:37.989Z,4.19
2022-11-15T18:45:09.657Z,4.11
2022-11-15T18:47:38.741Z,3.92
2022-11-15T18:50:08.006Z,3.89
2022-11-15T18:52:36.135Z,3.99
2022-11-15T18:55:05.081Z,3.87
2022-11-15T18:57:33.696Z,3.85
2022-11-15T19:00:02.136Z,3.83
2022-11-15T19:02:32.414Z,3.96
2022-11-15T19:05:00.832Z,3.75
2022-11-15T19:07:29.043Z,3.90
2022-11-15T19:09:57.745Z,3.86
2022-11-15T19:12:26.266Z,3.92
2022-11-15T19:14:54.689Z,3.99
2022-11-15T19:17:23.160Z,3.81
2022-11-15T19:19:52.554Z,3.98
2022-11-15T19:22:20.993Z,3.84
2022-11-15T19:24:49.451Z,3.81
2022-11-15T19:27:17.861Z,3.45
2022-11-15T19:29:46.221Z,3.29
2022-11-15T19:32:14.609Z,3.56
2022-11-15T19:34:42.747Z,3.40
2022-11-15T19:37:12.472Z,3.50
2022-11-15T19:39:41.486Z,3.49
2022-11-15T19:42:09.960Z,3.47
2022-11-15T19:44:38.521Z,3.51
2022-11-15T19:47:09.365Z,3.62
2022-11-15T19:49:37.470Z,3.53
2022-11-15T19:52:06.327Z,3.65
2022-11-15T19:54:36.179Z,3.57
2022-11-15T19:57:04.730Z,3.25
2022-11-15T19:59:33.129Z,3.46
2022-11-15T20:02:01.485Z,3.51
2022-11-15T20:04:29.670Z,3.55
2022-11-15T20:06:58.059Z,3.52
2022-11-15T20:09:26.529Z,3.55
2022-11-15T20:11:58.703Z,3.61
2022-11-15T20:14:28.106Z,3.54
2022-11-15T20:16:56.154Z,3.52
2022-11-15T20:19:24.686Z,3.48
2022-11-15T20:21:53.108Z,3.32
2022-11-15T20:24:21.624Z,3.24
2022-11-15T20:26:50.106Z,3.37
2022-11-15T20:29:20.116Z,3.51
2022-11-15T20:31:48.293Z,3.43
2022-11-15T20:34:16.707Z,3.42
2022-11-15T20:36:45.180Z,3.49
2022-11-15T20:39:13.604Z,3.45
2022-11-15T20:41:42.025Z,3.45
2022-11-15T20:44:10.366Z,3.21
2022-11-15T20:46:39.833Z,3.36
2022-11-15T20:49:08.240Z,3.40
2022-11-15T20:51:36.969Z,3.25
2022-11-15T20:54:06.257Z,3.33
2022-11-15T20:56:34.638Z,3.21
2022-11-15T20:59:03.191Z,3.38
2022-11-15T21:01:31.929Z,3.28
2022-11-15T21:04:01.852Z,3.31
2022-11-15T21:06:30.660Z,3.32
2022-11-15T21:09:16.623Z,3.37
2022-11-15T21:12:02.716Z,3.17
2022-11-15T21:14:31.227Z,3.33
2022-11-15T21:16:59.748Z,3.34
2022-11-15T21:19:36.676Z,3.26
2022-11-15T21:22:06.863Z,3.12
2022-11-15T21:24:35.285Z,3.21
2022-11-15T21:27:03.687Z,3.32
2022-11-15T21:29:37.527Z,3.35
2022-11-15T21:32:07.291Z,3.33
2022-11-15T21:34:37.341Z,3.15
2022-11-15T21:37:06.068Z,3.09
2022-11-15T21:39:34.619Z,3.11
2022-11-15T21:42:02.970Z,3.13
2022-11-15T21:44:31.732Z,2.87
2022-11-15T21:47:00.237Z,3.04
2022-11-15T21:49:28.230Z,3.10
2022-11-15T21:51:57.980Z,3.14
2022-11-15T21:54:26.408Z,3.20
2022-11-15T21:56:54.843Z,3.10
2022-11-15T21:59:23.316Z,3.22
2022-11-15T22:02:09.097Z,3.19
2022-11-15T22:04:37.674Z,3.13
2022-11-15T22:07:07.911Z,3.17
2022-11-15T22:09:36.749Z,3.22
2022-11-15T22:12:05.327Z,3.03
2022-11-15T22:14:33.767Z,3.14
2022-11-15T22:17:02.434Z,2.98
2022-11-15T22:19:30.791Z,2.96
2022-11-15T22:21:59.323Z,2.95
2022-11-15T22:24:29.411Z,2.96
2022-11-15T22:26:58.126Z,3.02
2022-11-15T22:29:26.860Z,3.11
2022-11-15T22:31:54.943Z,3.17
2022-11-15T22:34:23.382Z,3.13
2022-11-15T22:37:19.121Z,3.05
2022-11-15T22:39:42.590Z,3.17
2022-11-15T22:42:11.148Z,3.13
2022-11-15T22:44:39.682Z,2.77
2022-11-15T22:47:08.189Z,2.88
2022-11-15T22:49:36.265Z,2.93
2022-11-15T22:52:04.814Z,3.09
2022-11-15T22:54:33.239Z,3.14
2022-11-15T22:57:04.158Z,3.17
2022-11-15T22:59:33.014Z,3.12
2022-11-15T23:02:01.577Z,3.16
2022-11-15T23:04:30.138Z,3.40
2022-11-15T23:06:58.700Z,3.29
2022-11-15T23:09:27.289Z,3.33
2022-11-15T23:12:13.415Z,3.32
2022-11-15T23:14:43.379Z,3.50
2022-11-15T23:17:12.005Z,3.43
2022-11-15T23:19:40.338Z,3.38
2022-11-15T23:22:26.225Z,3.49
2022-11-15T23:24:55.937Z,3.50
2022-11-15T23:27:24.430Z,3.45
2022-11-15T23:30:11.475Z,3.49
2022-11-15T23:32:57.204Z,3.50
2022-11-15T23:35:26.054Z,3.36
2022-11-15T23:37:54.210Z,3.40
2022-11-15T23:40:22.590Z,3.49
2022-11-15T23:42:51.089Z,3.34
2022-11-15T23:45:20.895Z,3.57
2022-11-15T23:47:49.327Z,3.58
2022-11-15T23:50:18.341Z,3.60
2022-11-15T23:52:46.730Z,3.37
2022-11-15T23:55:15.388Z,3.53
2022-11-15T23:57:43.770Z,3.55
